Time;durP1;ratioP1;P1;durP2;ratioP2;P2;SDS_P1;SDS_P2;PMS_P1;PMS_P2;Temp;Humidity;BMP_temperature;BMP_pressure;BME280_temperature;BME280_humidity;BME280_pressure;Samples;Min_cycle;Max_cycle;Signal;HPM_P1;HPM_P2
2022/01/06 00:00:57;;;;;;;1999.90;700.13;;;3.50;99.90;;;;;;4988450;28;20519;-80
2022/01/06 00:03:27;;;;;;;1999.90;504.20;;;3.40;99.90;;;;;;4987902;28;20488;-80
2022/01/06 00:05:56;;;;;;;1999.90;542.57;;;3.40;99.90;;;;;;5003478;28;20452;-80
2022/01/06 00:08:39;;;;;;;1999.90;480.30;;;3.40;99.90;;;;;;5007690;28;20425;-80
2022/01/06 00:11:16;;;;;;;1999.90;315.07;;;3.40;99.90;;;;;;5039850;28;20440;-80
2022/01/06 00:13:53;;;;;;;1999.90;369.03;;;3.30;99.90;;;;;;5007379;28;20558;-80
2022/01/06 00:16:32;;;;;;;1999.90;395.43;;;3.20;99.90;;;;;;5039936;28;20460;-80
2022/01/06 00:24:32;;;;;;;1999.90;807.80;;;3.20;99.90;;;;;;5008011;28;21073;-80
2022/01/06 00:27:02;;;;;;;1999.90;311.83;;;3.10;99.90;;;;;;4992348;28;20496;-79
2022/01/06 00:29:31;;;;;;;1999.90;405.10;;;3.10;99.90;;;;;;5008066;28;20450;-80
2022/01/06 00:32:01;;;;;;;1999.90;489.23;;;3.10;99.90;;;;;;5007341;28;20496;-80
2022/01/06 00:34:30;;;;;;;1999.90;453.83;;;3.10;99.90;;;;;;5006712;28;20497;-80
2022/01/06 00:37:01;;;;;;;1999.90;391.73;;;3.10;99.90;;;;;;5007539;28;20947;-80
2022/01/06 00:39:30;;;;;;;1999.90;410.43;;;3.00;99.90;;;;;;5004999;28;20472;-80
2022/01/06 00:42:00;;;;;;;1999.90;393.90;;;3.00;99.90;;;;;;5005933;28;20445;-80
2022/01/06 00:44:36;;;;;;;1999.90;349.93;;;3.00;99.90;;;;;;5006333;28;20475;-80
2022/01/06 00:47:05;;;;;;;1999.90;265.30;;;2.90;99.90;;;;;;5005701;28;20855;-80
2022/01/06 00:49:33;;;;;;;1999.90;322.53;;;2.90;99.90;;;;;;5001059;28;21007;-80
2022/01/06 00:52:03;;;;;;;1994.07;266.83;;;2.90;99.90;;;;;;4986855;28;20455;-80
2022/01/06 00:54:34;;;;;;;1999.90;285.33;;;2.90;99.90;;;;;;4986759;28;20516;-79
2022/01/06 00:57:04;;;;;;;1999.90;387.37;;;2.80;99.90;;;;;;4986574;28;20457;-80
2022/01/06 00:59:35;;;;;;;1936.83;199.97;;;2.80;99.90;;;;;;4987776;28;21071;-80
2022/01/06 01:02:04;;;;;;;1999.90;481.40;;;2.80;99.90;;;;;;4996728;28;20459;-80
2022/01/06 01:04:33;;;;;;;1999.90;238.53;;;2.80;99.90;;;;;;5006057;28;20464;-80
2022/01/06 01:07:01;;;;;;;1999.90;328.53;;;2.70;99.90;;;;;;5037530;28;20542;-80
2022/01/06 01:09:30;;;;;;;1999.90;312.57;;;2.70;99.90;;;;;;5038333;28;20454;-80
2022/01/06 01:12:02;;;;;;;1999.90;424.37;;;2.70;99.90;;;;;;5006826;28;20462;-80
2022/01/06 01:14:43;;;;;;;1983.57;193.93;;;2.70;99.90;;;;;;5002159;28;20473;-80
2022/01/06 01:17:27;;;;;;;1672.10;253.47;;;2.60;99.90;;;;;;4986054;28;20502;-80
2022/01/06 01:19:59;;;;;;;1984.00;217.50;;;2.60;99.90;;;;;;4993617;28;20490;-80
2022/01/06 01:22:28;;;;;;;1999.90;343.33;;;2.60;99.90;;;;;;5002514;28;20461;-80
2022/01/06 01:25:05;;;;;;;1531.50;252.03;;;2.60;99.90;;;;;;4999616;28;20488;-80
2022/01/06 01:27:39;;;;;;;1441.07;237.17;;;2.50;99.90;;;;;;4986496;28;20449;-80
2022/01/06 01:30:12;;;;;;;1666.30;216.47;;;2.50;99.90;;;;;;4990713;28;20493;-80
2022/01/06 01:32:49;;;;;;;1786.37;265.03;;;2.50;99.90;;;;;;4987453;28;20481;-80
2022/01/06 01:35:19;;;;;;;1416.90;242.93;;;2.50;99.90;;;;;;4997447;28;20450;-80
2022/01/06 01:37:48;;;;;;;1499.83;226.27;;;2.40;99.90;;;;;;5023574;28;20461;-80
2022/01/06 01:40:16;;;;;;;1239.57;194.47;;;2.40;99.90;;;;;;5006926;28;20548;-80
2022/01/06 01:42:44;;;;;;;1816.23;170.13;;;2.40;99.90;;;;;;5040076;28;20496;-80
2022/01/06 01:45:17;;;;;;;1830.77;178.57;;;2.40;99.90;;;;;;5006793;28;20480;-80
2022/01/06 01:47:49;;;;;;;1519.67;192.50;;;2.40;99.90;;;;;;4986896;28;20524;-80
2022/01/06 01:50:21;;;;;;;1536.13;197.43;;;2.30;99.90;;;;;;4987904;28;20438;-80
2022/01/06 01:52:57;;;;;;;854.57;110.20;;;2.30;99.90;;;;;;4988272;28;20581;-80
2022/01/06 01:55:29;;;;;;;1101.33;157.57;;;2.30;99.90;;;;;;4987125;28;20460;-80
2022/01/06 01:57:58;;;;;;;1623.90;245.00;;;2.30;99.90;;;;;;4986723;28;20449;-80
2022/01/06 02:00:31;;;;;;;1795.23;272.47;;;2.20;99.90;;;;;;4986890;28;20477;-80
2022/01/06 02:03:01;;;;;;;1951.60;203.43;;;2.20;99.90;;;;;;4995531;28;20580;-80
2022/01/06 02:05:29;;;;;;;1397.83;161.70;;;2.20;99.90;;;;;;4989274;28;20458;-80
2022/01/06 02:07:59;;;;;;;1999.90;308.33;;;2.20;99.90;;;;;;4987715;28;20473;-80
2022/01/06 02:10:29;;;;;;;1163.33;203.30;;;2.10;99.90;;;;;;4988891;28;20443;-80
2022/01/06 02:13:00;;;;;;;931.67;142.43;;;2.10;99.90;;;;;;5006670;28;20491;-79
2022/01/06 02:15:28;;;;;;;1882.60;290.27;;;2.10;99.90;;;;;;4987868;28;20469;-80
2022/01/06 02:17:57;;;;;;;1300.93;168.10;;;2.10;99.90;;;;;;4987177;28;20875;-80
2022/01/06 02:20:30;;;;;;;1917.80;203.20;;;2.10;99.90;;;;;;4989769;28;20465;-80
2022/01/06 02:31:30;;;;;;;741.40;81.10;;;2.00;99.90;;;;;;4812500;29;20494;-80
2022/01/06 02:53:41;;;;;;;1112.87;164.53;;;1.80;99.90;;;;;;4823578;29;20526;-80
2022/01/06 02:56:12;;;;;;;1025.50;156.10;;;1.80;99.90;;;;;;4875434;29;20463;-80
2022/01/06 02:58:44;;;;;;;1793.20;217.10;;;1.80;99.90;;;;;;4876108;29;20460;-80
2022/01/06 03:01:12;;;;;;;1215.03;159.27;;;1.80;99.90;;;;;;4861120;29;21092;-80
2022/01/06 03:03:46;;;;;;;1999.90;216.10;;;1.70;99.90;;;;;;4986786;28;20478;-80
2022/01/06 03:06:20;;;;;;;1993.20;216.83;;;1.70;99.90;;;;;;4998254;28;20454;-80
2022/01/06 03:08:49;;;;;;;1636.53;281.93;;;1.70;99.90;;;;;;5009091;28;20543;-80
2022/01/06 03:11:24;;;;;;;1823.10;196.60;;;1.70;99.90;;;;;;5005564;28;20506;-80
2022/01/06 03:13:53;;;;;;;1870.53;239.13;;;1.70;99.90;;;;;;5021435;28;20937;-80
2022/01/06 03:16:21;;;;;;;1927.30;223.67;;;1.70;99.90;;;;;;5021346;28;20466;-80
2022/01/06 03:18:50;;;;;;;1999.90;274.13;;;1.70;99.90;;;;;;4989916;28;20449;-80
2022/01/06 03:21:18;;;;;;;1988.10;217.73;;;1.70;99.90;;;;;;5021195;28;20478;-79
2022/01/06 03:23:46;;;;;;;1999.90;320.40;;;1.70;99.90;;;;;;5009061;28;20477;-80
2022/01/06 03:26:16;;;;;;;1151.70;136.03;;;1.70;99.90;;;;;;5008927;28;20480;-80
2022/01/06 03:28:44;;;;;;;1830.03;185.63;;;1.70;99.90;;;;;;5035768;28;20469;-80
2022/01/06 03:31:16;;;;;;;1999.90;318.27;;;1.60;99.90;;;;;;5004069;28;20453;-80
2022/01/06 03:45:43;;;;;;;1504.60;152.40;;;1.50;99.90;;;;;;4892688;29;20959;-80
2022/01/06 03:48:11;;;;;;;1297.67;159.87;;;1.50;99.90;;;;;;4859145;29;20522;-79
2022/01/06 03:50:39;;;;;;;705.40;125.83;;;1.50;99.90;;;;;;4883720;29;20488;-80
2022/01/06 03:53:07;;;;;;;1035.23;137.07;;;1.50;99.90;;;;;;4885144;29;20549;-79
2022/01/06 03:55:37;;;;;;;1857.13;228.93;;;1.50;99.90;;;;;;4965498;28;20466;-80
2022/01/06 03:58:11;;;;;;;1800.40;223.73;;;1.50;99.90;;;;;;4963659;29;20448;-80
2022/01/06 04:00:51;;;;;;;;;;;;;;;;;;;;;
2022/01/06 04:03:55;;;;;;;1894.50;293.40;;;1.50;99.90;;;;;;4889933;29;20478;-80
2022/01/06 04:06:23;;;;;;;1626.63;223.57;;;1.50;99.90;;;;;;4951888;29;20467;-79
2022/01/06 04:08:53;;;;;;;1451.07;176.13;;;1.50;99.90;;;;;;4946256;29;20525;-79
2022/01/06 04:11:21;;;;;;;1565.53;215.37;;;1.60;99.90;;;;;;4982586;28;20478;-80
2022/01/06 04:13:50;;;;;;;1541.97;174.07;;;1.60;99.90;;;;;;4965984;28;20509;-80
2022/01/06 04:16:24;;;;;;;1452.53;214.60;;;1.60;99.90;;;;;;4949722;28;20782;-80
2022/01/06 04:18:55;;;;;;;1460.80;221.33;;;1.60;99.90;;;;;;4965443;29;20427;-80
2022/01/06 04:21:23;;;;;;;1379.33;158.40;;;1.60;99.90;;;;;;4935776;28;20472;-80
2022/01/06 04:23:51;;;;;;;1378.30;182.97;;;1.70;99.90;;;;;;4931785;29;20471;-80
2022/01/06 04:26:20;;;;;;;1588.77;187.67;;;1.60;99.90;;;;;;4931682;29;20543;-80
2022/01/06 04:28:48;;;;;;;1886.97;274.20;;;1.70;99.90;;;;;;4968210;28;20467;-80
2022/01/06 04:31:18;;;;;;;1814.10;278.93;;;1.70;99.90;;;;;;4962234;28;20818;-80
2022/01/06 04:33:50;;;;;;;1395.50;195.80;;;1.70;99.90;;;;;;5018451;28;20477;-80
2022/01/06 04:36:29;;;;;;;1951.17;320.07;;;1.70;99.90;;;;;;4986223;28;20457;-80
2022/01/06 04:39:09;;;;;;;1967.33;266.33;;;1.70;99.90;;;;;;4992261;28;20476;-80
2022/01/06 04:41:38;;;;;;;1934.47;239.77;;;1.80;99.90;;;;;;4999494;28;20525;-80
2022/01/06 04:44:07;;;;;;;1999.90;438.03;;;1.80;99.90;;;;;;4984887;28;20532;-80
2022/01/06 04:46:37;;;;;;;1648.80;249.43;;;1.80;99.90;;;;;;4985030;28;20539;-80
2022/01/06 04:49:07;;;;;;;1846.37;242.80;;;1.80;99.90;;;;;;4985591;28;20450;-80
2022/01/06 04:51:36;;;;;;;1999.90;305.43;;;1.80;99.90;;;;;;4987219;28;20444;-80
2022/01/06 04:54:05;;;;;;;1999.90;461.70;;;1.80;99.90;;;;;;4985312;28;20558;-80
2022/01/06 04:56:36;;;;;;;1318.53;170.13;;;1.80;99.90;;;;;;5002049;28;20460;-80
2022/01/06 04:59:09;;;;;;;1481.43;168.40;;;1.80;99.90;;;;;;4984751;28;20442;-80
2022/01/06 05:01:38;;;;;;;1242.67;202.43;;;1.80;99.90;;;;;;4998075;28;20524;-80
2022/01/06 05:04:08;;;;;;;1371.03;190.37;;;1.80;99.90;;;;;;5004959;28;20461;-80
2022/01/06 05:06:37;;;;;;;1999.90;254.70;;;1.80;99.90;;;;;;4986823;28;20528;-80
2022/01/06 05:09:05;;;;;;;1999.90;278.30;;;1.70;99.90;;;;;;4985413;28;20959;-79
2022/01/06 05:11:33;;;;;;;1999.90;247.57;;;1.70;99.90;;;;;;5027986;28;20998;-80
2022/01/06 05:14:01;;;;;;;1375.10;156.37;;;1.70;99.90;;;;;;4985344;28;20474;-80
2022/01/06 05:16:37;;;;;;;1286.67;199.80;;;1.70;99.90;;;;;;4986155;28;20448;-79
2022/01/06 05:19:17;;;;;;;1070.47;142.83;;;1.70;99.90;;;;;;4985390;28;20540;-80
2022/01/06 05:21:51;;;;;;;1046.83;107.80;;;1.70;99.90;;;;;;5023313;28;20895;-79
2022/01/06 05:24:24;;;;;;;1814.13;211.37;;;1.60;99.90;;;;;;5006026;28;20498;-80
2022/01/06 05:26:57;;;;;;;1252.10;192.90;;;1.60;99.90;;;;;;4998001;28;20461;-79
2022/01/06 05:29:26;;;;;;;1083.73;119.47;;;1.60;99.90;;;;;;5035675;28;20489;-80
2022/01/06 05:31:54;;;;;;;680.20;86.47;;;1.60;99.90;;;;;;5003308;28;20445;-80
2022/01/06 05:34:24;;;;;;;1191.43;163.50;;;1.60;99.90;;;;;;5004500;28;20460;-80
2022/01/06 05:36:52;;;;;;;1329.07;166.97;;;1.60;99.90;;;;;;5003332;28;20883;-80
2022/01/06 05:39:20;;;;;;;1107.43;148.13;;;1.50;99.90;;;;;;5003352;28;20456;-79
2022/01/06 05:41:49;;;;;;;947.20;156.50;;;1.50;99.90;;;;;;5003379;28;20511;-80
2022/01/06 05:44:17;;;;;;;1038.30;157.30;;;1.50;99.90;;;;;;4987228;28;20503;-80
2022/01/06 05:46:47;;;;;;;1275.43;165.63;;;1.50;99.90;;;;;;4984467;28;21033;-80
2022/01/06 05:49:16;;;;;;;1769.57;192.30;;;1.50;99.90;;;;;;4984300;28;20477;-80
2022/01/06 05:51:51;;;;;;;1531.17;193.07;;;1.40;99.90;;;;;;5016671;28;20473;-79
2022/01/06 06:32:04;;;;;;;694.03;91.23;;;1.30;99.90;;;;;;4857452;29;20991;-80
2022/01/06 06:34:32;;;;;;;898.93;140.97;;;1.30;99.90;;;;;;4961433;28;20471;-80
2022/01/06 06:37:02;;;;;;;1999.90;269.20;;;1.30;99.90;;;;;;4987714;28;21018;-80
2022/01/06 06:39:30;;;;;;;1999.90;442.33;;;1.30;99.90;;;;;;4989692;28;20446;-80
2022/01/06 06:41:58;;;;;;;1862.13;276.87;;;1.30;99.90;;;;;;4989949;28;20485;-80
2022/01/06 06:44:29;;;;;;;1765.47;211.43;;;1.30;99.90;;;;;;4989208;28;20532;-80
2022/01/06 06:46:57;;;;;;;1225.00;153.17;;;1.30;99.90;;;;;;4988743;28;20523;-80
2022/01/06 06:49:29;;;;;;;1161.77;178.90;;;1.30;99.90;;;;;;4989789;28;20422;-80
2022/01/06 06:51:58;;;;;;;1246.13;176.63;;;1.30;99.90;;;;;;5020629;28;20461;-80
2022/01/06 06:54:27;;;;;;;1389.33;187.73;;;1.30;99.90;;;;;;4987509;28;20502;-80
2022/01/06 06:56:57;;;;;;;1236.63;171.90;;;1.30;99.90;;;;;;4987847;28;20481;-80
2022/01/06 06:59:31;;;;;;;1253.87;154.07;;;1.30;99.90;;;;;;4986590;28;20446;-80
2022/01/06 07:03:11;;;;;;;1179.00;146.40;;;1.30;99.90;;;;;;4987314;28;20479;-80
2022/01/06 07:06:10;;;;;;;1388.37;167.73;;;1.30;99.90;;;;;;4869918;29;20483;-80
2022/01/06 07:23:30;;;;;;;1768.23;282.70;;;1.20;99.90;;;;;;4781026;29;20578;-80
2022/01/06 07:25:58;;;;;;;845.00;81.70;;;1.20;99.90;;;;;;4922739;28;20279;-80
2022/01/06 07:28:28;;;;;;;1944.90;243.23;;;1.20;99.90;;;;;;4986801;28;20461;-80
2022/01/06 07:30:57;;;;;;;1182.40;153.23;;;1.20;99.90;;;;;;4986855;28;20473;-80
2022/01/06 07:33:27;;;;;;;1165.40;146.27;;;1.20;99.90;;;;;;4986158;28;20497;-80
2022/01/06 07:35:57;;;;;;;932.83;104.73;;;1.20;99.90;;;;;;5019642;28;20477;-80
2022/01/06 07:38:29;;;;;;;1452.10;199.47;;;1.20;99.90;;;;;;4986806;28;20461;-80
2022/01/06 07:41:07;;;;;;;1616.73;178.63;;;1.10;99.90;;;;;;4988558;28;20418;-80
2022/01/06 07:43:38;;;;;;;1592.13;207.77;;;1.10;99.90;;;;;;4987970;28;20493;-80
2022/01/06 07:46:07;;;;;;;732.77;103.27;;;1.10;99.90;;;;;;4987936;28;20438;-80
2022/01/06 07:48:54;;;;;;;1099.40;147.17;;;1.10;99.90;;;;;;4986768;28;20831;-80
2022/01/06 07:51:27;;;;;;;760.23;106.97;;;1.10;99.90;;;;;;4986693;28;20521;-80
2022/01/06 07:54:00;;;;;;;1676.03;214.07;;;1.10;99.90;;;;;;4986713;28;20494;-81
2022/01/06 07:56:29;;;;;;;1080.80;156.60;;;1.10;99.90;;;;;;5020481;28;20485;-80
2022/01/06 07:58:58;;;;;;;1875.53;251.30;;;1.10;99.90;;;;;;4987257;28;20553;-80
2022/01/06 08:01:32;;;;;;;1435.20;191.87;;;1.10;99.90;;;;;;5019929;28;20452;-80
2022/01/06 08:04:04;;;;;;;1269.63;165.13;;;1.10;99.90;;;;;;4987401;28;20492;-80
2022/01/06 08:06:32;;;;;;;1181.80;142.07;;;1.10;99.90;;;;;;4989716;28;20841;-80
2022/01/06 08:09:02;;;;;;;1372.50;156.77;;;1.10;99.90;;;;;;4987892;28;20541;-80
2022/01/06 08:11:32;;;;;;;1492.30;204.93;;;1.10;99.90;;;;;;5019969;28;20457;-80
2022/01/06 08:14:06;;;;;;;1514.87;226.83;;;1.10;99.90;;;;;;5020802;28;20493;-80
2022/01/06 09:15:13;;;;;;;747.53;111.37;;;1.80;99.90;;;;;;5892529;24;20459;-81
2022/01/06 09:51:26;;;;;;;1591.47;209.60;;;2.10;99.90;;;;;;5796470;24;20525;-81
2022/01/06 09:54:02;;;;;;;1999.90;415.90;;;2.10;99.90;;;;;;5944786;23;20438;-80
2022/01/06 09:56:39;;;;;;;1999.90;452.77;;;2.20;99.90;;;;;;6170175;23;20432;-80
2022/01/06 09:59:20;;;;;;;1999.90;498.90;;;2.20;99.90;;;;;;6146267;23;20410;-81
2022/01/06 10:01:48;;;;;;;1999.90;384.47;;;2.30;99.90;;;;;;6146672;23;20437;-81
2022/01/06 10:04:25;;;;;;;1999.90;435.80;;;2.30;99.90;;;;;;6171345;23;20441;-81
2022/01/06 10:07:21;;;;;;;1999.90;566.47;;;2.40;99.90;;;;;;6171628;23;20444;-81
2022/01/06 10:14:00;;;;;;;1957.50;291.63;;;2.40;99.90;;;;;;6005740;23;20449;-81
2022/01/06 10:16:33;;;;;;;1999.90;450.60;;;2.50;99.90;;;;;;6086477;23;20792;-81
2022/01/06 10:19:11;;;;;;;1999.90;754.80;;;2.50;99.90;;;;;;6172759;23;20402;-81
2022/01/06 10:37:41;;;;;;;1999.90;433.37;;;2.80;99.90;;;;;;5751593;24;20500;-81
2022/01/06 11:02:28;;;;;;;1999.90;533.10;;;3.20;99.90;;;;;;5833616;23;20673;-79
2022/01/06 11:04:56;;;;;;;1999.90;999.90;;;3.30;99.90;;;;;;6080325;23;20193;-80
2022/01/06 11:07:25;;;;;;;1999.90;527.07;;;3.30;99.90;;;;;;6116725;23;20422;-80
2022/01/06 11:09:56;;;;;;;1999.90;999.90;;;3.40;99.90;;;;;;6117896;23;20422;-80
2022/01/06 11:12:28;;;;;;;1999.90;769.23;;;3.40;99.90;;;;;;6143607;23;20392;-80
2022/01/06 11:15:13;;;;;;;1999.90;999.90;;;3.50;99.90;;;;;;6117002;23;20496;-80
2022/01/06 11:17:48;;;;;;;1958.40;275.13;;;3.50;99.90;;;;;;6116175;23;20435;-80
2022/01/06 11:20:24;;;;;;;1999.90;999.90;;;3.60;99.90;;;;;;6116008;23;20418;-80
2022/01/06 11:22:55;;;;;;;1999.90;999.90;;;3.60;99.90;;;;;;6115376;23;20438;-80
2022/01/06 11:25:35;;;;;;;1999.90;560.67;;;3.70;99.90;;;;;;6138843;23;20418;-79
2022/01/06 11:28:06;;;;;;;1999.90;999.90;;;3.70;99.90;;;;;;6134997;23;20422;-79
2022/01/06 11:30:43;;;;;;;1896.47;501.30;;;3.70;99.90;;;;;;6137210;23;20944;-78
2022/01/06 11:33:17;;;;;;;1999.90;999.90;;;3.80;99.90;;;;;;6152777;23;20415;-79
2022/01/06 11:35:51;;;;;;;1846.40;752.30;;;3.80;99.90;;;;;;6117011;23;20917;-80
2022/01/06 11:46:00;;;;;;;1999.90;999.90;;;3.90;99.90;;;;;;5943894;24;20532;-80
2022/01/06 11:48:31;;;;;;;1999.90;999.90;;;4.00;99.90;;;;;;6001670;23;20986;-80
2022/01/06 11:51:01;;;;;;;1474.77;460.57;;;4.00;99.90;;;;;;6001464;23;20425;-80
2022/01/06 11:53:35;;;;;;;1999.90;999.90;;;4.10;99.90;;;;;;6025104;23;20473;-80
2022/01/06 11:56:14;;;;;;;1999.90;999.90;;;4.10;99.90;;;;;;6054336;23;20427;-80
2022/01/06 11:58:42;;;;;;;1999.90;999.90;;;4.10;99.90;;;;;;6029899;23;20418;-80
2022/01/06 12:01:18;;;;;;;1999.90;999.90;;;4.10;99.90;;;;;;6029092;23;20448;-80
2022/01/06 12:03:49;;;;;;;1999.90;999.90;;;4.20;99.90;;;;;;6062146;23;20425;-80
2022/01/06 12:06:26;;;;;;;1999.90;999.90;;;4.20;99.90;;;;;;6030327;23;20448;-80
2022/01/06 12:08:55;;;;;;;1999.90;999.90;;;4.20;99.90;;;;;;6025544;23;20425;-80
2022/01/06 12:11:25;;;;;;;1637.47;494.57;;;4.20;99.90;;;;;;6080735;23;20500;-80
2022/01/06 12:13:56;;;;;;;1999.90;999.90;;;4.30;99.90;;;;;;6146728;23;20447;-80
2022/01/06 12:16:30;;;;;;;1528.57;490.43;;;4.30;99.90;;;;;;6145877;23;20411;-80
2022/01/06 12:19:01;;;;;;;1999.90;999.90;;;4.30;99.90;;;;;;6172020;23;20400;-81
2022/01/06 12:21:29;;;;;;;1999.90;999.90;;;4.40;99.90;;;;;;6171210;23;20399;-81
2022/01/06 12:24:02;;;;;;;1999.90;999.90;;;4.40;99.90;;;;;;6145268;23;20470;-81
2022/01/06 12:26:33;;;;;;;1999.90;999.90;;;4.40;99.90;;;;;;6171408;23;20435;-80
2022/01/06 12:29:04;;;;;;;1571.23;459.67;;;4.50;99.90;;;;;;6171076;23;20416;-80
2022/01/06 12:31:33;;;;;;;1999.90;999.90;;;4.50;99.90;;;;;;6145732;23;20401;-80
2022/01/06 12:34:04;;;;;;;1999.90;999.90;;;4.50;99.90;;;;;;6144869;23;20520;-80
2022/01/06 12:36:40;;;;;;;1999.90;999.90;;;4.60;99.90;;;;;;6145182;23;20883;-80
2022/01/06 12:39:19;;;;;;;1999.90;999.90;;;4.60;99.90;;;;;;6171566;23;20397;-80
2022/01/06 12:41:49;;;;;;;1999.90;999.90;;;4.60;99.90;;;;;;6144669;23;20410;-81
2022/01/06 12:44:21;;;;;;;1999.90;999.90;;;4.60;99.90;;;;;;6144038;23;20428;-81
2022/01/06 12:46:56;;;;;;;1604.37;246.27;;;4.60;99.90;;;;;;6145102;23;20529;-81
2022/01/06 12:49:29;;;;;;;1999.90;999.90;;;4.70;99.90;;;;;;6145653;23;20412;-81
2022/01/06 12:52:03;;;;;;;1999.90;999.90;;;4.70;99.90;;;;;;6145959;23;20504;-81
2022/01/06 12:54:34;;;;;;;1999.90;999.90;;;4.70;99.90;;;;;;6170616;23;20491;-80
2022/01/06 12:57:06;;;;;;;1999.90;999.90;;;4.80;99.90;;;;;;6145882;23;20423;-81
2022/01/06 12:59:37;;;;;;;1691.90;496.90;;;4.80;99.90;;;;;;6172508;23;20396;-81
2022/01/06 13:02:11;;;;;;;1618.90;493.07;;;4.80;99.90;;;;;;6171164;23;20428;-81
2022/01/06 13:04:43;;;;;;;1999.90;999.90;;;4.80;99.90;;;;;;6144437;23;20438;-81
2022/01/06 13:07:13;;;;;;;1702.47;490.40;;;4.90;99.90;;;;;;6169980;23;20429;-81
2022/01/06 13:09:44;;;;;;;1558.37;468.27;;;4.90;99.90;;;;;;6145689;23;20409;-80
2022/01/06 13:12:22;;;;;;;1641.00;206.63;;;4.90;99.90;;;;;;6145456;23;20412;-80
2022/01/06 13:14:54;;;;;;;1999.90;999.90;;;4.90;99.90;;;;;;6170944;23;20440;-81
2022/01/06 13:17:25;;;;;;;1999.90;999.90;;;5.00;99.90;;;;;;6170789;23;20404;-81
2022/01/06 13:20:10;;;;;;;1999.90;999.90;;;5.00;99.90;;;;;;6146060;23;20401;-81
2022/01/06 13:23:11;;;;;;;1675.83;478.03;;;5.00;99.90;;;;;;6145572;23;20450;-81
2022/01/06 13:25:38;;;;;;;1999.90;999.90;;;5.00;99.90;;;;;;6171767;23;20435;-80
2022/01/06 13:28:11;;;;;;;1627.53;454.97;;;5.00;99.90;;;;;;6171540;23;20416;-81
2022/01/06 13:30:42;;;;;;;1999.90;999.90;;;5.00;99.90;;;;;;6171911;23;20418;-81
2022/01/06 13:33:16;;;;;;;1999.90;999.90;;;5.00;99.90;;;;;;6147212;23;20444;-81
2022/01/06 13:35:50;;;;;;;1999.90;999.90;;;5.00;99.90;;;;;;6173391;23;20407;-81
2022/01/06 13:38:20;;;;;;;1646.53;491.23;;;4.90;99.90;;;;;;6147663;23;20411;-81
2022/01/06 13:40:54;;;;;;;1999.90;999.90;;;4.90;99.90;;;;;;6175032;23;20473;-81
2022/01/06 13:43:31;;;;;;;1999.90;999.90;;;4.90;99.90;;;;;;6175565;23;20431;-81
2022/01/06 13:46:12;;;;;;;1999.90;999.90;;;4.90;99.90;;;;;;6148784;23;20435;-81
2022/01/06 13:48:46;;;;;;;1999.90;999.90;;;4.90;99.90;;;;;;6148115;23;20418;-81
2022/01/06 13:51:20;;;;;;;1999.90;999.90;;;4.80;99.90;;;;;;6148399;23;20411;-80
2022/01/06 13:53:55;;;;;;;1999.90;999.90;;;4.80;99.90;;;;;;6148291;23;20436;-80
2022/01/06 13:56:31;;;;;;;1999.90;999.90;;;4.80;99.90;;;;;;6173697;23;20418;-81
2022/01/06 13:59:11;;;;;;;1505.63;461.47;;;4.80;99.90;;;;;;6148228;23;20727;-81
2022/01/06 14:05:31;;;;;;;1999.90;999.90;;;4.70;99.90;;;;;;5979148;24;20759;-81
2022/01/06 14:08:03;;;;;;;1999.90;999.90;;;4.70;99.90;;;;;;5947883;24;20447;-81
2022/01/06 14:11:09;;;;;;;;;;;;;;;;;;;;;
2022/01/06 14:27:25;;;;;;;1999.90;999.90;;;4.60;99.90;;;;;;5883966;23;20199;-80
2022/01/06 14:29:53;;;;;;;1999.90;999.90;;;4.60;99.90;;;;;;6029157;23;20419;-80
2022/01/06 14:32:21;;;;;;;1831.90;734.23;;;4.60;99.90;;;;;;6053487;23;20423;-80
2022/01/06 14:34:50;;;;;;;1999.90;999.90;;;4.70;99.90;;;;;;6065016;23;20417;-80
2022/01/06 14:37:19;;;;;;;1999.90;999.90;;;4.70;99.90;;;;;;6088606;23;20501;-80
2022/01/06 14:39:47;;;;;;;1999.90;999.90;;;4.60;99.90;;;;;;6087316;23;20925;-80
2022/01/06 14:42:16;;;;;;;1631.17;474.73;;;4.60;99.90;;;;;;6111626;23;20466;-80
2022/01/06 14:44:46;;;;;;;1612.67;462.70;;;4.60;99.90;;;;;;6087585;23;20485;-80
2022/01/06 14:47:14;;;;;;;1849.23;483.10;;;4.60;99.90;;;;;;6086691;23;20458;-80
2022/01/06 14:49:42;;;;;;;1785.50;505.37;;;4.50;99.90;;;;;;6087591;23;20445;-80
2022/01/06 14:52:11;;;;;;;1923.27;292.20;;;4.60;99.90;;;;;;6167153;23;20458;-80
2022/01/06 14:54:39;;;;;;;1873.57;496.57;;;4.60;99.90;;;;;;6171217;23;20453;-80
2022/01/06 14:57:07;;;;;;;1999.90;999.90;;;4.60;99.90;;;;;;6145583;23;20465;-79
2022/01/06 14:59:36;;;;;;;1842.70;744.83;;;4.60;99.90;;;;;;6182643;23;20431;-80
2022/01/06 15:02:06;;;;;;;1999.90;999.90;;;4.60;99.90;;;;;;6170744;23;20427;-80
2022/01/06 15:04:35;;;;;;;1872.90;519.87;;;4.60;99.90;;;;;;6145411;23;20444;-80
2022/01/06 15:07:04;;;;;;;1999.90;999.90;;;4.60;99.90;;;;;;6145867;23;20512;-80
2022/01/06 15:09:33;;;;;;;1999.90;999.90;;;4.60;99.90;;;;;;6145233;23;20484;-80
2022/01/06 15:12:01;;;;;;;1999.90;999.90;;;4.60;99.90;;;;;;6146189;23;20519;-80
2022/01/06 15:14:29;;;;;;;1999.90;999.90;;;4.60;99.90;;;;;;6146284;23;20468;-80
2022/01/06 15:16:58;;;;;;;1999.90;999.90;;;4.60;99.90;;;;;;6146894;23;20417;-80
2022/01/06 15:19:28;;;;;;;1999.90;517.77;;;4.60;99.90;;;;;;6180185;23;20883;-79
2022/01/06 15:21:57;;;;;;;1899.90;738.90;;;4.60;99.90;;;;;;6140863;23;20502;-80
2022/01/06 15:24:25;;;;;;;1999.90;999.90;;;4.50;99.90;;;;;;6171808;23;20440;-80
2022/01/06 15:26:54;;;;;;;1999.90;999.90;;;4.50;99.90;;;;;;6146550;23;20436;-80
2022/01/06 15:29:22;;;;;;;1999.90;999.90;;;4.50;99.90;;;;;;6145231;23;20494;-81
2022/01/06 15:31:51;;;;;;;1999.90;999.90;;;4.50;99.90;;;;;;6146707;23;20423;-81
2022/01/06 15:34:19;;;;;;;1999.90;999.90;;;4.40;99.90;;;;;;6147220;23;20527;-81
2022/01/06 15:36:49;;;;;;;1999.90;999.90;;;4.40;99.90;;;;;;6173091;23;20443;-81
2022/01/06 15:39:17;;;;;;;1999.90;999.90;;;4.40;99.90;;;;;;6146902;23;20512;-81
2022/01/06 15:41:45;;;;;;;1999.90;999.90;;;4.30;99.90;;;;;;6172385;23;20439;-81
2022/01/06 15:44:14;;;;;;;1999.90;999.90;;;4.30;99.90;;;;;;6183789;23;20439;-81
2022/01/06 15:46:42;;;;;;;1999.90;999.90;;;4.30;99.90;;;;;;6172812;23;20442;-80
2022/01/06 15:49:10;;;;;;;1999.90;999.90;;;4.20;99.90;;;;;;6147613;23;20409;-81
2022/01/06 15:51:39;;;;;;;1999.90;999.90;;;4.20;99.90;;;;;;6171506;23;20424;-80
2022/01/06 15:54:12;;;;;;;1999.90;999.90;;;4.10;99.90;;;;;;6147531;23;20456;-80
2022/01/06 15:56:45;;;;;;;1999.90;999.90;;;4.10;99.90;;;;;;6146750;23;20729;-81
2022/01/06 15:59:15;;;;;;;1999.90;999.90;;;4.10;99.90;;;;;;6147086;23;20415;-81
2022/01/06 16:07:21;;;;;;;1999.90;999.90;;;4.00;99.90;;;;;;6146704;23;20520;-80
2022/01/06 16:09:57;;;;;;;1999.90;999.90;;;3.90;99.90;;;;;;6147481;23;20912;-81
2022/01/06 16:16:37;;;;;;;1999.90;999.90;;;3.90;99.90;;;;;;6007019;24;20424;-80
2022/01/06 16:54:40;;;;;;;1048.73;140.43;;;3.40;99.90;;;;;;5672763;22;13793041;-80
2022/01/06 16:57:20;;;;;;;;;;;;;;;;;;;;;
2022/01/06 16:59:55;;;;;;;1250.97;154.67;;;3.10;99.90;;;;;;6188143;23;20408;-80
2022/01/06 17:09:46;;;;;;;884.13;103.27;;;3.10;99.90;;;;;;5857218;24;20414;-81
2022/01/06 17:12:17;;;;;;;1999.90;999.90;;;3.00;99.90;;;;;;6007487;23;20799;-81
2022/01/06 17:14:48;;;;;;;1999.90;999.90;;;3.00;99.90;;;;;;6122564;23;20404;-80
2022/01/06 17:17:19;;;;;;;1823.70;476.63;;;3.00;99.90;;;;;;6097281;23;20418;-80
2022/01/06 17:20:05;;;;;;;;;;;;;;;;;;;;;
2022/01/06 17:33:07;;;;;;;1269.20;150.27;;;2.90;99.90;;;;;;5836563;24;20429;-81
2022/01/06 17:35:35;;;;;;;1080.63;124.57;;;2.90;99.90;;;;;;6080156;23;20175;-80
2022/01/06 17:38:05;;;;;;;1641.03;693.20;;;2.90;99.90;;;;;;6069007;23;20422;-81
2022/01/06 17:40:33;;;;;;;1899.97;727.60;;;2.90;99.90;;;;;;6068805;23;20479;-80
2022/01/06 17:43:05;;;;;;;1922.60;245.60;;;2.90;99.90;;;;;;6068140;23;20517;-80
2022/01/06 17:45:35;;;;;;;1999.90;999.90;;;2.90;99.90;;;;;;6152769;23;20413;-80
2022/01/06 17:48:04;;;;;;;1711.83;471.03;;;2.90;99.90;;;;;;6186928;23;20437;-80
2022/01/06 17:50:36;;;;;;;1999.90;999.90;;;2.90;99.90;;;;;;6186891;23;20418;-80
2022/01/06 17:53:05;;;;;;;1999.90;999.90;;;2.90;99.90;;;;;;6184239;23;20443;-80
2022/01/06 17:55:36;;;;;;;1800.37;467.33;;;2.90;99.90;;;;;;6178185;23;20762;-80
2022/01/06 17:58:09;;;;;;;1733.93;708.00;;;2.80;99.90;;;;;;6179612;23;20423;-80